createdAt,value
2019-03-10T00:02:11.367Z,9.33
2019-03-10T00:05:17.754Z,11.30
2019-03-10T00:08:24.897Z,15.63
2019-03-10T00:11:31.851Z,9.37
2019-03-10T00:14:38.450Z,7.30
2019-03-10T00:17:45.332Z,16.03
2019-03-10T00:20:51.821Z,14.77
2019-03-10T00:23:58.320Z,15.53
2019-03-10T00:27:05.264Z,9.50
2019-03-10T00:30:12.065Z,10.30
2019-03-10T00:33:18.715Z,12.80
2019-03-10T00:36:25.507Z,9.53
2019-03-10T00:40:07.141Z,8.87
2019-03-10T00:44:05.987Z,7.40
2019-03-10T00:48:02.307Z,10.53
2019-03-10T00:51:31.685Z,8.23
2019-03-10T00:54:38.434Z,6.50
2019-03-10T00:57:45.128Z,11.00
2019-03-10T01:00:52.441Z,11.83
2019-03-10T01:03:58.707Z,8.20
2019-03-10T01:07:05.060Z,8.27
2019-03-10T01:10:11.652Z,10.20
2019-03-10T01:13:19.915Z,16.50
2019-03-10T01:16:26.742Z,13.40
2019-03-10T01:19:34.338Z,4.97
2019-03-10T01:22:41.900Z,13.37
2019-03-10T01:25:48.704Z,7.13
2019-03-10T01:28:55.056Z,20.80
2019-03-10T01:32:37.138Z,10.13
2019-03-10T01:35:43.772Z,11.50
2019-03-10T01:38:50.361Z,9.17
2019-03-10T01:41:57.713Z,7.90
2019-03-10T01:45:04.836Z,7.80
2019-03-10T01:48:11.320Z,11.03
2019-03-10T01:51:17.974Z,7.53
2019-03-10T01:54:24.700Z,6.10
2019-03-10T01:57:31.665Z,12.47
2019-03-10T02:00:38.432Z,12.17
2019-03-10T02:03:45.510Z,5.40
2019-03-10T02:06:52.029Z,10.23
2019-03-10T02:09:58.997Z,10.57
2019-03-10T02:13:06.767Z,5.17
2019-03-10T02:16:13.960Z,12.13
2019-03-10T02:19:20.764Z,22.23
2019-03-10T02:22:27.367Z,9.30
2019-03-10T02:25:34.122Z,15.33
2019-03-10T02:28:40.490Z,10.60
2019-03-10T02:31:48.130Z,15.97
2019-03-10T02:34:55.007Z,12.60
2019-03-10T02:38:02.068Z,19.90
2019-03-10T02:41:08.883Z,10.33
2019-03-10T02:44:15.760Z,9.70
2019-03-10T02:47:22.649Z,8.93
2019-03-10T02:50:29.685Z,7.63
2019-03-10T02:53:36.017Z,14.40
2019-03-10T02:56:42.799Z,14.90
2019-03-10T02:59:49.608Z,5.87
2019-03-10T03:02:56.257Z,12.30
2019-03-10T03:06:02.608Z,10.43
2019-03-10T03:09:09.369Z,10.53
2019-03-10T03:12:15.838Z,17.80
2019-03-10T03:15:22.876Z,9.77
2019-03-10T03:18:29.793Z,14.40
2019-03-10T03:21:43.560Z,15.47
2019-03-10T03:24:46.812Z,17.40
2019-03-10T03:27:53.286Z,21.00
2019-03-10T03:30:59.576Z,10.60
2019-03-10T03:34:05.990Z,23.00
2019-03-10T03:37:15.966Z,20.70
2019-03-10T03:40:22.831Z,10.20
2019-03-10T03:43:29.256Z,25.57
2019-03-10T03:46:36.538Z,17.40
2019-03-10T03:49:43.024Z,24.73
2019-03-10T03:52:49.581Z,20.80
2019-03-10T03:55:56.564Z,12.97
2019-03-10T03:59:02.854Z,13.30
2019-03-10T04:02:13.098Z,19.03
2019-03-10T04:05:20.224Z,16.80
2019-03-10T04:08:26.871Z,22.37
2019-03-10T04:11:33.541Z,22.40
2019-03-10T04:14:41.099Z,22.43
2019-03-10T04:17:47.860Z,18.70
2019-03-10T04:20:54.490Z,21.30
2019-03-10T04:24:01.121Z,15.20
2019-03-10T04:27:08.921Z,10.50
2019-03-10T04:30:15.848Z,11.90
2019-03-10T04:33:22.542Z,19.13
2019-03-10T04:36:29.005Z,15.67
2019-03-10T04:39:35.335Z,11.50
2019-03-10T04:42:41.779Z,18.40
2019-03-10T04:45:48.102Z,13.07
2019-03-10T04:48:58.861Z,16.67
2019-03-10T04:52:05.477Z,13.87
2019-03-10T04:55:23.776Z,14.47
2019-03-10T04:58:30.335Z,16.07
2019-03-10T05:01:37.464Z,13.10
2019-03-10T05:04:44.095Z,15.40
2019-03-10T05:07:50.518Z,16.37
2019-03-10T05:10:57.298Z,23.07
2019-03-10T05:14:04.156Z,15.37
2019-03-10T05:17:10.981Z,25.87
2019-03-10T05:20:17.489Z,25.17
2019-03-10T05:23:45.419Z,13.03
2019-03-10T05:26:52.510Z,11.10
2019-03-10T05:29:59.255Z,14.73
2019-03-10T05:33:05.736Z,16.27
2019-03-10T05:36:12.763Z,14.67
2019-03-10T05:39:19.585Z,11.63
2019-03-10T05:42:25.976Z,14.27
2019-03-10T05:45:32.744Z,13.17
2019-03-10T05:48:39.203Z,15.27
2019-03-10T05:51:45.587Z,18.33
2019-03-10T05:54:51.893Z,19.73
2019-03-10T05:57:58.594Z,24.10
2019-03-10T06:01:04.983Z,12.17
2019-03-10T06:04:11.214Z,14.20
2019-03-10T06:07:17.720Z,26.73
2019-03-10T06:10:24.225Z,14.93
2019-03-10T06:13:30.889Z,16.30
2019-03-10T06:16:37.857Z,11.27
2019-03-10T06:19:44.553Z,12.80
2019-03-10T06:22:51.283Z,12.83
2019-03-10T06:25:57.896Z,20.03
2019-03-10T06:29:04.723Z,11.80
2019-03-10T06:32:11.266Z,11.20
2019-03-10T06:35:17.911Z,18.93
2019-03-10T06:38:24.855Z,6.13
2019-03-10T06:41:34.503Z,6.67
2019-03-10T06:44:40.900Z,8.53
2019-03-10T06:47:47.585Z,10.77
2019-03-10T06:50:53.946Z,17.60
2019-03-10T06:54:00.681Z,13.87
2019-03-10T06:57:07.731Z,9.30
2019-03-10T07:00:14.578Z,10.60
2019-03-10T07:03:21.311Z,16.20
2019-03-10T07:06:27.917Z,13.63
2019-03-10T07:09:34.847Z,8.57
2019-03-10T07:12:41.395Z,6.87
2019-03-10T07:15:48.500Z,6.53
2019-03-10T07:18:55.520Z,3.57
2019-03-10T07:22:02.472Z,8.40
2019-03-10T07:25:09.247Z,4.23
2019-03-10T07:28:21.528Z,4.73
2019-03-10T07:31:46.186Z,2.37
2019-03-10T07:35:26.839Z,3.10
2019-03-10T07:38:54.786Z,2.77
2019-03-10T07:42:20.389Z,2.20
2019-03-10T07:45:42.889Z,2.80
2019-03-10T07:49:07.633Z,3.23
2019-03-10T07:52:39.468Z,4.20
2019-03-10T07:56:08.108Z,1.80
2019-03-10T07:59:45.866Z,1.13
2019-03-10T08:03:11.575Z,3.20
2019-03-10T08:06:27.693Z,6.20
2019-03-10T08:09:59.120Z,1.17
2019-03-10T08:13:11.405Z,2.23
2019-03-10T08:16:36.880Z,10.63
2019-03-10T08:20:05.771Z,6.53
2019-03-10T08:23:22.941Z,6.80
2019-03-10T08:26:48.757Z,7.47
2019-03-10T08:30:08.252Z,1.03
2019-03-10T08:33:31.942Z,2.77
2019-03-10T08:36:48.747Z,4.50
2019-03-10T08:40:17.605Z,8.13
2019-03-10T08:44:01.648Z,2.47
2019-03-10T08:47:34.186Z,3.23
2019-03-10T08:50:47.022Z,5.50
2019-03-10T08:54:24.873Z,2.07
2019-03-10T08:57:50.343Z,8.27
2019-03-10T09:01:21.876Z,5.20
2019-03-10T09:04:46.900Z,5.97
2019-03-10T09:08:13.476Z,1.57
2019-03-10T09:11:39.902Z,10.60
2019-03-10T09:14:55.439Z,13.67
2019-03-10T09:18:33.732Z,14.83
2019-03-10T09:21:52.034Z,7.10
2019-03-10T09:25:24.370Z,1.10
2019-03-10T09:29:08.904Z,1.60
2019-03-10T09:32:39.399Z,0.60
2019-03-10T09:36:02.191Z,0.20
2019-03-10T09:39:30.103Z,0.80
2019-03-10T09:43:08.988Z,0.40
2019-03-10T09:46:24.897Z,0.30
2019-03-10T09:49:41.240Z,0.20
2019-03-10T09:53:05.473Z,0.20
2019-03-10T09:56:40.006Z,0.37
2019-03-10T10:00:09.244Z,0.20
2019-03-10T10:03:31.070Z,0.20
2019-03-10T10:06:57.329Z,0.60
2019-03-10T10:13:45.061Z,0.30
2019-03-10T10:17:10.076Z,0.20
2019-03-10T10:20:38.921Z,0.30
2019-03-10T10:24:04.163Z,0.20
2019-03-10T10:27:35.464Z,0.20
2019-03-10T10:30:55.342Z,0.20
2019-03-10T10:34:36.867Z,0.20
2019-03-10T10:38:02.613Z,0.20
2019-03-10T10:41:29.116Z,0.20
2019-03-10T10:44:56.190Z,0.30
2019-03-10T10:48:26.106Z,0.50
2019-03-10T10:51:52.484Z,0.20
2019-03-10T10:55:11.010Z,0.20
2019-03-10T10:58:34.373Z,1.33
2019-03-10T11:01:48.203Z,0.30
2019-03-10T11:05:06.106Z,0.20
2019-03-10T11:08:36.135Z,0.30
2019-03-10T11:12:20.311Z,0.57
2019-03-10T11:15:44.876Z,0.40
2019-03-10T11:19:01.620Z,0.20
2019-03-10T11:22:33.609Z,0.30
2019-03-10T11:26:01.990Z,0.43
2019-03-10T11:29:19.008Z,0.30
2019-03-10T11:32:42.569Z,0.30
2019-03-10T11:35:57.112Z,0.30
2019-03-10T11:39:29.343Z,0.43
2019-03-10T11:42:42.158Z,0.57
2019-03-10T11:46:22.686Z,1.10
2019-03-10T11:50:04.203Z,0.70
2019-03-10T11:53:19.437Z,1.13
2019-03-10T11:56:32.603Z,0.60
2019-03-10T11:59:44.632Z,1.27
2019-03-10T12:03:02.588Z,0.30
2019-03-10T12:06:30.795Z,0.50
2019-03-10T12:09:37.740Z,0.27
2019-03-10T12:12:46.245Z,0.30
2019-03-10T12:15:53.319Z,0.30
2019-03-10T12:19:01.075Z,0.50
2019-03-10T12:22:09.052Z,0.40
2019-03-10T12:25:16.566Z,0.30
2019-03-10T12:28:25.412Z,0.30
2019-03-10T12:31:40.645Z,0.20
2019-03-10T12:34:47.720Z,0.20
2019-03-10T12:37:58.161Z,0.30
2019-03-10T12:41:06.280Z,1.13
2019-03-10T12:44:13.429Z,1.50
2019-03-10T12:47:20.331Z,0.40
2019-03-10T12:50:27.101Z,0.50
2019-03-10T12:53:33.966Z,0.90
2019-03-10T12:56:41.078Z,0.80
2019-03-10T12:59:48.559Z,0.50
2019-03-10T13:02:55.448Z,0.40
2019-03-10T13:06:02.971Z,0.40
2019-03-10T13:09:11.331Z,0.53
2019-03-10T13:12:18.616Z,1.60
2019-03-10T13:15:25.787Z,0.40
2019-03-10T13:18:32.643Z,1.83
2019-03-10T13:21:44.151Z,0.63
2019-03-10T13:24:51.510Z,1.03
2019-03-10T13:27:58.668Z,1.57
2019-03-10T13:31:05.591Z,0.77
2019-03-10T13:34:14.216Z,1.47
2019-03-10T13:37:21.565Z,3.47
2019-03-10T13:40:29.058Z,3.03
2019-03-10T13:43:36.221Z,8.30
2019-03-10T13:46:44.107Z,1.23
2019-03-10T13:49:54.995Z,6.90
2019-03-10T13:53:02.023Z,1.27
2019-03-10T13:56:09.620Z,1.27
2019-03-10T13:59:16.622Z,0.63
2019-03-10T14:02:23.222Z,3.87
2019-03-10T14:05:32.217Z,4.10
2019-03-10T14:08:39.007Z,2.00
2019-03-10T14:11:46.258Z,2.83
2019-03-10T14:14:53.000Z,8.90
2019-03-10T14:18:01.235Z,1.80
2019-03-10T14:21:09.103Z,4.57
2019-03-10T14:24:15.879Z,1.20
2019-03-10T14:27:22.927Z,4.67
2019-03-10T14:30:30.644Z,0.60
2019-03-10T14:33:37.830Z,0.93
2019-03-10T14:36:45.325Z,0.97
2019-03-10T14:39:55.331Z,0.60
2019-03-10T14:43:05.366Z,2.50
2019-03-10T14:46:15.931Z,4.47
2019-03-10T14:49:23.738Z,6.93
2019-03-10T14:52:31.959Z,2.50
2019-03-10T14:55:39.864Z,3.57
2019-03-10T14:58:46.259Z,3.70
2019-03-10T15:01:54.211Z,2.23
2019-03-10T15:05:02.129Z,3.17
2019-03-10T15:08:11.217Z,5.43
2019-03-10T15:11:19.692Z,1.27
2019-03-10T15:14:28.436Z,3.20
2019-03-10T15:17:36.867Z,2.63
2019-03-10T15:20:46.567Z,2.47
2019-03-10T15:23:55.102Z,1.13
2019-03-10T15:27:04.375Z,4.83
2019-03-10T15:30:17.088Z,3.30
2019-03-10T15:33:25.491Z,2.50
2019-03-10T15:36:33.043Z,5.50
2019-03-10T15:39:42.076Z,5.13
2019-03-10T15:42:49.704Z,2.20
2019-03-10T15:45:58.075Z,5.60
2019-03-10T15:49:08.181Z,4.47
2019-03-10T15:52:14.849Z,14.00
2019-03-10T15:55:23.841Z,8.13
2019-03-10T15:58:31.192Z,4.07
2019-03-10T16:01:48.646Z,11.20
2019-03-10T16:05:00.444Z,4.80
2019-03-10T16:08:09.321Z,8.17
2019-03-10T16:11:18.328Z,6.63
2019-03-10T16:14:26.260Z,10.30
2019-03-10T16:17:34.530Z,4.67
2019-03-10T16:20:41.641Z,2.77
2019-03-10T16:23:48.980Z,5.60
2019-03-10T16:27:00.705Z,11.50
2019-03-10T16:30:14.824Z,4.00
2019-03-10T16:33:25.422Z,5.27
2019-03-10T16:36:32.998Z,4.07
2019-03-10T16:39:40.969Z,2.63
2019-03-10T16:42:48.905Z,4.93
2019-03-10T16:45:56.506Z,2.40
2019-03-10T16:49:03.943Z,0.90
2019-03-10T16:52:16.232Z,4.40
2019-03-10T16:55:28.086Z,4.83
2019-03-10T16:58:38.845Z,3.00
2019-03-10T17:01:47.157Z,4.80
2019-03-10T17:04:54.298Z,4.13
2019-03-10T17:08:05.720Z,5.17
2019-03-10T17:11:15.590Z,0.90
2019-03-10T17:14:24.470Z,7.60
2019-03-10T17:17:31.538Z,0.80
2019-03-10T17:20:38.719Z,5.00
2019-03-10T17:23:45.508Z,0.40
2019-03-10T17:26:52.555Z,0.57
2019-03-10T17:29:59.348Z,3.03
2019-03-10T17:33:06.221Z,1.80
2019-03-10T17:36:12.937Z,2.80
2019-03-10T17:39:20.818Z,4.87
2019-03-10T17:42:27.873Z,0.33
2019-03-10T17:45:34.382Z,0.47
2019-03-10T17:48:40.907Z,5.63
2019-03-10T17:51:48.850Z,0.50
2019-03-10T17:54:55.917Z,0.43
2019-03-10T17:58:02.710Z,1.43
2019-03-10T18:01:10.299Z,0.80
2019-03-10T18:04:19.677Z,0.60
2019-03-10T18:07:31.721Z,0.77
2019-03-10T18:10:40.236Z,0.33
2019-03-10T18:13:56.686Z,1.87
2019-03-10T18:17:05.334Z,2.30
2019-03-10T18:20:15.267Z,2.30
2019-03-10T18:23:25.865Z,1.50
2019-03-10T18:26:37.506Z,4.90
2019-03-10T18:29:47.985Z,3.80
2019-03-10T18:33:00.853Z,0.93
2019-03-10T18:36:08.724Z,0.40
2019-03-10T18:39:20.313Z,0.40
2019-03-10T18:42:34.253Z,1.50
2019-03-10T18:45:51.901Z,2.10
2019-03-10T18:49:03.117Z,0.57
2019-03-10T18:52:16.560Z,1.90
2019-03-10T18:55:27.194Z,4.67
2019-03-10T18:58:36.694Z,0.50
2019-03-10T19:01:50.400Z,2.43
2019-03-10T19:05:02.666Z,1.03
2019-03-10T19:08:15.111Z,0.20
2019-03-10T19:11:27.217Z,0.30
2019-03-10T19:14:37.513Z,7.30
2019-03-10T19:17:44.188Z,0.30
2019-03-10T19:20:50.770Z,0.83
2019-03-10T19:23:57.574Z,0.57
2019-03-10T19:27:04.710Z,0.60
2019-03-10T19:30:13.863Z,0.50
2019-03-10T19:33:20.356Z,0.50
2019-03-10T19:36:30.221Z,0.40
2019-03-10T19:39:37.694Z,0.53
2019-03-10T19:42:44.655Z,0.30
2019-03-10T19:45:51.996Z,0.30
2019-03-10T19:48:59.271Z,0.20
2019-03-10T19:52:06.801Z,4.43
2019-03-10T19:55:19.878Z,0.80
2019-03-10T19:58:27.038Z,0.20
2019-03-10T20:01:36.526Z,0.20
2019-03-10T20:04:44.207Z,0.20
2019-03-10T20:07:51.778Z,6.73
2019-03-10T20:10:58.486Z,0.20
2019-03-10T20:14:06.081Z,0.20
2019-03-10T20:17:12.596Z,0.40
2019-03-10T20:20:21.944Z,2.63
2019-03-10T20:23:30.420Z,0.57
2019-03-10T20:26:37.733Z,1.57
2019-03-10T20:29:44.802Z,0.20
2019-03-10T20:32:51.567Z,0.30
2019-03-10T20:35:58.176Z,0.27
2019-03-10T20:39:09.020Z,0.20
2019-03-10T20:42:17.486Z,0.20
2019-03-10T20:45:24.650Z,0.30
2019-03-10T20:48:31.701Z,0.87
2019-03-10T20:51:41.590Z,0.20
2019-03-10T20:54:48.715Z,0.30
2019-03-10T20:57:55.717Z,0.20
2019-03-10T21:01:02.747Z,0.20
2019-03-10T21:04:09.467Z,0.83
2019-03-10T21:07:15.771Z,1.47
2019-03-10T21:10:27.542Z,0.60
2019-03-10T21:13:34.592Z,0.50
2019-03-10T21:16:41.606Z,0.70
2019-03-10T21:19:48.932Z,0.40
2019-03-10T21:22:56.239Z,0.20
2019-03-10T21:26:03.453Z,0.30
2019-03-10T21:29:11.432Z,0.20
2019-03-10T21:32:17.963Z,0.20
2019-03-10T21:35:25.884Z,0.20
2019-03-10T21:38:32.422Z,0.20
2019-03-10T21:41:42.043Z,0.20
2019-03-10T21:44:48.831Z,0.20
2019-03-10T21:47:56.159Z,0.20
2019-03-10T21:51:03.257Z,1.03
2019-03-10T21:54:10.163Z,0.20
2019-03-10T21:57:16.770Z,0.20
2019-03-10T22:00:24.789Z,0.20
2019-03-10T22:03:31.962Z,0.30
2019-03-10T22:06:42.708Z,0.40
2019-03-10T22:09:50.874Z,0.93
2019-03-10T22:12:58.157Z,0.80
2019-03-10T22:16:04.811Z,1.60
2019-03-10T22:19:21.929Z,0.87
2019-03-10T22:22:19.897Z,1.40
2019-03-10T22:25:26.993Z,0.40
2019-03-10T22:28:33.270Z,0.50
2019-03-10T22:31:40.062Z,1.27
2019-03-10T22:34:47.110Z,0.40
2019-03-10T22:37:53.977Z,1.40
2019-03-10T22:41:00.693Z,0.50
2019-03-10T22:44:07.171Z,1.47
2019-03-10T22:47:14.091Z,0.50
2019-03-10T22:50:20.998Z,0.67
2019-03-10T22:53:28.201Z,1.67
2019-03-10T22:56:35.750Z,1.80
2019-03-10T22:59:42.537Z,1.03
2019-03-10T23:02:49.136Z,1.27
2019-03-10T23:05:55.732Z,0.83
2019-03-10T23:09:02.253Z,1.37
2019-03-10T23:12:10.740Z,3.30
2019-03-10T23:15:17.617Z,10.67
2019-03-10T23:18:24.217Z,1.00
2019-03-10T23:21:32.049Z,6.67
2019-03-10T23:24:39.186Z,5.47
2019-03-10T23:27:45.397Z,2.30
2019-03-10T23:30:52.278Z,5.60
2019-03-10T23:33:58.976Z,2.30
2019-03-10T23:37:05.463Z,0.70
2019-03-10T23:40:12.205Z,3.00
2019-03-10T23:43:18.615Z,4.50
2019-03-10T23:46:25.449Z,2.67
2019-03-10T23:49:32.289Z,1.37
2019-03-10T23:52:39.130Z,2.20
2019-03-10T23:55:45.839Z,2.30
2019-03-10T23:58:52.482Z,2.10
